Time;durP1;ratioP1;P1;durP2;ratioP2;P2;SDS_P1;SDS_P2;PMS_P1;PMS_P2;Temp;Humidity;BMP_temperature;BMP_pressure;BME280_temperature;BME280_humidity;BME280_pressure;Samples;Min_cycle;Max_cycle;Signal;HPM_P1;HPM_P2
2023/08/12 00:00:16;;;;;;;9.90;4.70;;;21.40;99.90;;;;;;5005904;28;20482;-72
2023/08/12 00:02:43;;;;;;;10.98;4.93;;;21.30;99.90;;;;;;5009023;28;20385;-72
2023/08/12 00:05:10;;;;;;;10.82;4.85;;;21.20;99.90;;;;;;5009308;28;20408;-72
2023/08/12 00:07:36;;;;;;;16.73;5.10;;;21.20;99.90;;;;;;4988230;28;20504;-72
2023/08/12 00:10:04;;;;;;;10.88;5.43;;;21.10;99.90;;;;;;4969974;28;20399;-72
2023/08/12 00:12:36;;;;;;;11.68;5.22;;;21.10;99.90;;;;;;4969951;28;20908;-72
2023/08/12 00:15:04;;;;;;;10.57;5.05;;;21.20;99.90;;;;;;4988356;28;20936;-72
2023/08/12 00:17:30;;;;;;;12.57;5.80;;;21.10;99.90;;;;;;5003627;28;20430;-72
2023/08/12 00:19:57;;;;;;;14.23;5.97;;;21.30;99.90;;;;;;4992054;28;21396;-72
2023/08/12 00:22:22;;;;;;;11.40;5.20;;;21.20;99.90;;;;;;5008339;28;20400;-72
2023/08/12 00:24:48;;;;;;;13.30;5.90;;;21.40;99.90;;;;;;4993482;28;20450;-72
2023/08/12 00:27:14;;;;;;;10.57;5.07;;;21.40;99.90;;;;;;5006043;28;20420;-72
2023/08/12 00:29:39;;;;;;;12.07;5.40;;;21.50;52.60;;;;;;4994206;28;20917;-72
2023/08/12 00:32:06;;;;;;;12.50;5.43;;;21.50;1.00;;;;;;5001273;28;20622;-72
2023/08/12 00:34:31;;;;;;;10.20;4.78;;;21.50;1.00;;;;;;4990859;28;20406;-72
2023/08/12 00:36:57;;;;;;;11.40;4.97;;;21.50;1.00;;;;;;5007799;28;20807;-72
2023/08/12 00:39:22;;;;;;;10.10;4.87;;;21.60;1.00;;;;;;5003001;28;20434;-72
2023/08/12 00:41:48;;;;;;;14.10;5.43;;;21.60;1.00;;;;;;5001513;28;20428;-72
2023/08/12 00:44:14;;;;;;;15.10;5.20;;;21.60;1.00;;;;;;5007566;28;20488;-72
2023/08/12 00:46:41;;;;;;;11.35;5.45;;;21.50;1.00;;;;;;4990967;28;20445;-72
2023/08/12 00:49:07;;;;;;;11.40;5.90;;;21.40;15.60;;;;;;5001174;28;20577;-72
2023/08/12 00:51:33;;;;;;;11.10;4.90;;;21.40;20.40;;;;;;4988978;28;20421;-72
2023/08/12 00:53:59;;;;;;;12.57;5.50;;;21.40;99.90;;;;;;4989438;28;20919;-72
2023/08/12 00:56:26;;;;;;;10.07;5.38;;;21.20;99.90;;;;;;5003412;28;20416;-72
2023/08/12 00:58:53;;;;;;;11.18;5.07;;;21.20;99.90;;;;;;5007524;28;20424;-72
2023/08/12 01:01:19;;;;;;;11.20;5.35;;;21.30;99.90;;;;;;4990330;28;20402;-72
2023/08/12 01:03:45;;;;;;;10.73;4.80;;;21.30;99.90;;;;;;4986940;28;20426;-72
2023/08/12 01:06:10;;;;;;;10.07;4.67;;;21.20;99.90;;;;;;4988008;28;20406;-72
2023/08/12 01:08:36;;;;;;;10.57;5.10;;;21.20;99.90;;;;;;4995180;28;20420;-72
2023/08/12 01:11:28;;;;;;;12.70;5.67;;;21.20;99.90;;;;;;5002768;28;20761;-72
2023/08/12 01:14:32;;;;;;;11.27;5.32;;;21.20;99.90;;;;;;4962559;28;20444;-72
2023/08/12 01:17:03;;;;;;;10.98;5.57;;;21.20;99.90;;;;;;4988534;28;20403;-72
2023/08/12 01:19:39;;;;;;;13.18;5.47;;;21.20;99.90;;;;;;4987594;28;20434;-72
2023/08/12 01:22:08;;;;;;;12.85;5.13;;;21.00;99.90;;;;;;4989660;28;20541;-72
2023/08/12 01:24:41;;;;;;;11.90;4.82;;;20.90;99.90;;;;;;5008140;28;20399;-72
2023/08/12 01:27:09;;;;;;;14.30;5.97;;;20.90;99.90;;;;;;4998132;28;20401;-72
2023/08/12 01:29:45;;;;;;;11.40;5.50;;;20.90;99.90;;;;;;4994308;28;20407;-72
2023/08/12 01:32:37;;;;;;;10.93;5.50;;;21.00;99.90;;;;;;5003017;28;20444;-72
2023/08/12 01:35:19;;;;;;;11.93;5.93;;;20.90;99.90;;;;;;5007669;28;20793;-71
2023/08/12 01:37:45;;;;;;;11.85;5.28;;;20.80;99.90;;;;;;4969055;28;20734;-72
2023/08/12 01:40:13;;;;;;;10.68;5.18;;;20.70;99.90;;;;;;4972386;28;20427;-72
2023/08/12 01:42:40;;;;;;;11.48;5.18;;;20.70;1.00;;;;;;5005266;28;20447;-72
2023/08/12 01:45:06;;;;;;;10.68;4.88;;;20.70;1.00;;;;;;4989265;28;20834;-72
2023/08/12 01:47:32;;;;;;;11.18;5.70;;;20.60;1.00;;;;;;4988477;28;20434;-72
2023/08/12 01:49:58;;;;;;;11.85;5.18;;;20.70;1.00;;;;;;4988077;28;20417;-72
2023/08/12 01:52:24;;;;;;;10.73;5.95;;;20.70;1.00;;;;;;4987288;28;20421;-72
2023/08/12 01:54:49;;;;;;;12.00;5.38;;;20.70;1.00;;;;;;4995747;28;20397;-71
2023/08/12 01:57:15;;;;;;;10.68;4.93;;;20.70;1.00;;;;;;4996639;28;20416;-71
2023/08/12 01:59:41;;;;;;;13.05;5.88;;;20.80;1.00;;;;;;4992094;28;20423;-71
2023/08/12 02:02:06;;;;;;;10.35;4.70;;;20.80;1.00;;;;;;5000477;28;20414;-71
2023/08/12 02:04:33;;;;;;;10.67;5.20;;;20.90;1.00;;;;;;4991428;28;20472;-71
2023/08/12 02:06:59;;;;;;;10.77;4.93;;;20.80;99.90;;;;;;4991050;28;20795;-71
2023/08/12 02:09:24;;;;;;;10.77;5.57;;;20.80;1.00;;;;;;5003399;28;20459;-71
2023/08/12 02:11:50;;;;;;;11.87;5.67;;;20.80;1.00;;;;;;4998915;28;20461;-71
2023/08/12 02:14:16;;;;;;;11.98;5.75;;;20.90;1.00;;;;;;4990917;28;20413;-71
2023/08/12 02:16:41;;;;;;;10.23;4.82;;;20.90;99.90;;;;;;5008189;28;20938;-71
2023/08/12 02:19:07;;;;;;;12.10;5.10;;;21.00;99.90;;;;;;5011946;28;21018;-71
2023/08/12 02:21:32;;;;;;;10.83;5.00;;;21.00;99.90;;;;;;5002654;28;20405;-71
2023/08/12 02:23:58;;;;;;;11.90;5.10;;;21.10;99.90;;;;;;4989485;28;20502;-71
2023/08/12 02:26:23;;;;;;;10.80;5.40;;;21.00;99.90;;;;;;5005803;28;20427;-71
2023/08/12 02:28:49;;;;;;;12.10;5.20;;;20.90;1.00;;;;;;4999601;28;20421;-71
2023/08/12 02:31:16;;;;;;;11.33;5.60;;;20.80;1.00;;;;;;4993116;28;20503;-71
2023/08/12 02:33:41;;;;;;;14.07;5.10;;;20.80;1.00;;;;;;5002580;28;20411;-71
2023/08/12 02:36:07;;;;;;;10.45;4.75;;;20.80;1.00;;;;;;5002390;28;20413;-71
2023/08/12 02:38:32;;;;;;;12.05;5.03;;;20.90;1.00;;;;;;5010880;28;20443;-72
2023/08/12 02:40:58;;;;;;;11.05;5.47;;;20.90;1.00;;;;;;4993405;28;20390;-72
2023/08/12 02:43:23;;;;;;;11.30;5.40;;;20.90;1.00;;;;;;4990874;28;20386;-72
2023/08/12 02:45:49;;;;;;;10.13;5.05;;;21.10;99.90;;;;;;4990945;28;20402;-71
2023/08/12 02:48:14;;;;;;;9.15;4.68;;;21.00;99.90;;;;;;4990677;28;20404;-72
2023/08/12 02:50:40;;;;;;;11.38;4.95;;;20.90;1.00;;;;;;4991430;28;20410;-72
2023/08/12 02:53:06;;;;;;;10.10;4.90;;;20.90;1.00;;;;;;5008311;28;20885;-72
2023/08/12 02:55:32;;;;;;;9.82;4.30;;;20.90;1.00;;;;;;5010259;28;20397;-72
2023/08/12 02:57:58;;;;;;;12.33;5.00;;;21.10;1.00;;;;;;5010020;28;20396;-72
2023/08/12 03:00:24;;;;;;;13.97;4.97;;;21.20;99.90;;;;;;5010237;28;20877;-72
2023/08/12 03:02:50;;;;;;;9.98;4.75;;;21.20;99.90;;;;;;5010984;28;20428;-72
2023/08/12 03:05:15;;;;;;;12.02;5.00;;;21.20;99.90;;;;;;4996105;28;20870;-72
2023/08/12 03:07:41;;;;;;;11.52;5.10;;;21.20;99.90;;;;;;4985065;28;20416;-72
2023/08/12 03:10:07;;;;;;;10.03;4.40;;;21.30;99.90;;;;;;4981724;28;20399;-72
2023/08/12 03:12:33;;;;;;;11.00;4.50;;;21.40;99.90;;;;;;4989275;28;20425;-72
2023/08/12 03:14:58;;;;;;;9.82;4.53;;;21.30;99.90;;;;;;4989365;28;20418;-72
2023/08/12 03:17:24;;;;;;;10.43;4.82;;;21.20;99.90;;;;;;4994985;28;20414;-72
2023/08/12 03:19:49;;;;;;;11.60;4.63;;;21.20;99.90;;;;;;4990599;28;20427;-71
2023/08/12 03:22:15;;;;;;;11.20;4.97;;;21.20;99.90;;;;;;4996564;28;20423;-71
2023/08/12 03:24:41;;;;;;;10.43;4.87;;;21.30;99.90;;;;;;4970763;28;20776;-72
2023/08/12 03:27:06;;;;;;;10.10;4.90;;;21.30;99.90;;;;;;4986545;28;20420;-72
2023/08/12 03:29:31;;;;;;;10.27;4.97;;;21.30;99.90;;;;;;5008406;28;20409;-71
2023/08/12 03:31:57;;;;;;;11.43;4.80;;;21.30;99.90;;;;;;4993293;28;20994;-71
2023/08/12 03:34:23;;;;;;;11.70;5.25;;;21.10;99.90;;;;;;4999738;28;20420;-71
2023/08/12 03:36:50;;;;;;;14.10;5.17;;;21.10;99.90;;;;;;5007604;28;20797;-71
2023/08/12 03:39:16;;;;;;;11.67;5.57;;;21.10;99.90;;;;;;5009250;28;20984;-71
2023/08/12 03:41:41;;;;;;;11.02;5.35;;;21.00;99.90;;;;;;5003128;28;20493;-71
2023/08/12 03:44:07;;;;;;;11.87;5.60;;;21.00;1.00;;;;;;4990461;28;20477;-71
2023/08/12 03:46:32;;;;;;;11.70;4.73;;;21.10;99.90;;;;;;5004192;28;20447;-71
2023/08/12 03:48:58;;;;;;;11.07;5.00;;;21.00;99.90;;;;;;5002322;28;20466;-72
2023/08/12 03:51:23;;;;;;;9.90;5.00;;;21.00;1.00;;;;;;4998711;28;21169;-72
2023/08/12 03:53:49;;;;;;;12.80;5.40;;;21.10;99.90;;;;;;4994441;28;20432;-72
2023/08/12 03:56:15;;;;;;;10.80;4.90;;;21.20;99.90;;;;;;4991457;28;20427;-72
2023/08/12 03:58:40;;;;;;;10.67;5.00;;;21.30;99.90;;;;;;4982235;28;20422;-72
2023/08/12 04:01:06;;;;;;;9.88;4.70;;;21.40;99.90;;;;;;5001091;28;20446;-72
2023/08/12 04:03:31;;;;;;;9.90;4.65;;;21.40;99.90;;;;;;5004707;28;20816;-71
2023/08/12 04:05:57;;;;;;;8.75;4.60;;;21.40;99.90;;;;;;4985417;28;20879;-72
2023/08/12 04:08:24;;;;;;;9.07;4.30;;;21.40;99.90;;;;;;4996413;28;20448;-72
2023/08/12 04:10:50;;;;;;;10.82;4.88;;;21.40;99.90;;;;;;4991699;28;20418;-72
2023/08/12 04:13:16;;;;;;;9.15;4.38;;;21.30;99.90;;;;;;4995969;28;20449;-72
2023/08/12 04:15:42;;;;;;;11.30;4.60;;;21.20;1.00;;;;;;5008927;28;20424;-72
2023/08/12 04:18:08;;;;;;;13.88;5.00;;;21.20;99.90;;;;;;4991731;28;20418;-72
2023/08/12 04:20:33;;;;;;;10.05;4.85;;;21.20;99.90;;;;;;5007105;28;20928;-72
2023/08/12 04:22:59;;;;;;;9.98;4.70;;;21.20;99.90;;;;;;4999159;28;20497;-72
2023/08/12 04:25:25;;;;;;;10.25;4.47;;;21.20;99.90;;;;;;5003474;28;20539;-72
2023/08/12 04:27:50;;;;;;;10.05;4.40;;;21.30;99.90;;;;;;4989356;28;20424;-72
2023/08/12 04:30:18;;;;;;;10.00;4.53;;;21.40;99.90;;;;;;4998758;28;20428;-71
2023/08/12 04:32:44;;;;;;;9.00;4.45;;;21.50;99.90;;;;;;5005696;28;20405;-71
2023/08/12 04:35:10;;;;;;;11.87;4.70;;;21.60;99.90;;;;;;5005999;28;20428;-71
2023/08/12 04:37:36;;;;;;;11.30;4.80;;;21.60;99.90;;;;;;5006125;28;20413;-71
2023/08/12 04:40:03;;;;;;;8.80;4.25;;;21.60;99.90;;;;;;5007521;28;20440;-71
2023/08/12 04:42:29;;;;;;;8.88;4.20;;;21.50;99.90;;;;;;5006714;28;20411;-71
2023/08/12 04:44:55;;;;;;;12.82;4.00;;;21.50;99.90;;;;;;5005608;28;20428;-71
2023/08/12 04:47:20;;;;;;;9.32;4.85;;;21.50;99.90;;;;;;5003008;28;20760;-71
2023/08/12 04:49:46;;;;;;;11.38;4.90;;;21.50;99.90;;;;;;4995537;28;20432;-71
2023/08/12 04:52:11;;;;;;;8.43;4.72;;;21.60;92.00;;;;;;5005458;28;21021;-71
2023/08/12 04:54:37;;;;;;;8.77;4.20;;;21.70;4.20;;;;;;5000958;28;20417;-71
2023/08/12 04:57:02;;;;;;;10.20;4.60;;;21.70;99.90;;;;;;5000646;28;20410;-71
2023/08/12 04:59:28;;;;;;;10.35;4.78;;;21.70;99.90;;;;;;4997631;28;20421;-71
2023/08/12 05:01:54;;;;;;;9.97;4.90;;;21.60;99.90;;;;;;5007024;28;20935;-71
2023/08/12 05:04:19;;;;;;;9.93;4.70;;;21.70;99.90;;;;;;5005225;28;20443;-71
2023/08/12 05:06:45;;;;;;;8.95;4.18;;;21.60;99.90;;;;;;5005892;28;20419;-71
2023/08/12 05:09:10;;;;;;;10.27;4.72;;;21.60;99.90;;;;;;5006468;28;20424;-71
2023/08/12 05:11:36;;;;;;;10.10;4.30;;;21.60;99.90;;;;;;4980766;28;20440;-71
2023/08/12 05:14:01;;;;;;;8.90;4.10;;;21.70;99.90;;;;;;4987627;28;20422;-71
2023/08/12 05:16:28;;;;;;;10.82;4.65;;;22.00;99.90;;;;;;5007546;28;20400;-71
2023/08/12 05:18:53;;;;;;;10.27;4.70;;;21.90;99.90;;;;;;5007293;28;20428;-71
2023/08/12 05:21:19;;;;;;;10.93;5.10;;;21.90;99.90;;;;;;5006677;28;20766;-72
2023/08/12 05:23:44;;;;;;;9.50;4.63;;;22.00;99.90;;;;;;5001996;28;20421;-72
2023/08/12 05:26:10;;;;;;;9.80;4.63;;;21.90;99.90;;;;;;4987635;28;20530;-72
2023/08/12 05:28:35;;;;;;;9.27;4.40;;;22.00;99.90;;;;;;4972353;28;20413;-72
2023/08/12 05:31:01;;;;;;;11.55;4.20;;;22.00;99.90;;;;;;4991563;28;20415;-71
2023/08/12 05:33:26;;;;;;;9.60;4.50;;;22.00;99.90;;;;;;4998519;28;20918;-71
2023/08/12 05:35:52;;;;;;;10.18;4.60;;;21.90;99.90;;;;;;5001388;28;20423;-72
2023/08/12 05:38:17;;;;;;;13.33;4.97;;;21.90;1.00;;;;;;4997331;28;20460;-71
2023/08/12 05:40:43;;;;;;;11.73;4.90;;;21.90;1.00;;;;;;4991812;28;21182;-72
2023/08/12 05:43:08;;;;;;;9.40;4.50;;;22.00;99.90;;;;;;4992861;28;20423;-71
2023/08/12 05:45:34;;;;;;;10.80;5.20;;;22.00;99.90;;;;;;4991899;28;20414;-71
2023/08/12 05:47:59;;;;;;;9.60;4.55;;;22.00;99.90;;;;;;5000741;28;20401;-72
2023/08/12 05:50:25;;;;;;;9.07;4.35;;;22.00;99.90;;;;;;5011566;28;20424;-72
2023/08/12 05:52:50;;;;;;;9.02;4.45;;;21.90;1.00;;;;;;5011675;28;20405;-72
2023/08/12 05:55:16;;;;;;;10.15;5.13;;;22.00;1.00;;;;;;4996200;28;20402;-72
2023/08/12 05:57:42;;;;;;;11.18;4.57;;;22.20;99.90;;;;;;4990380;28;20395;-72
2023/08/12 06:00:08;;;;;;;11.27;4.63;;;22.40;99.90;;;;;;4992011;28;20924;-72
2023/08/12 06:02:33;;;;;;;11.00;5.40;;;22.60;99.90;;;;;;4998250;28;20857;-72
2023/08/12 06:04:59;;;;;;;9.60;4.80;;;22.80;99.90;;;;;;4991248;28;20476;-72
2023/08/12 06:07:24;;;;;;;13.20;5.30;;;22.80;99.90;;;;;;4997394;28;20414;-72
2023/08/12 06:09:50;;;;;;;8.93;4.60;;;22.80;99.90;;;;;;4993727;28;20414;-72
2023/08/12 06:12:16;;;;;;;9.68;5.10;;;22.80;99.90;;;;;;4991605;28;20417;-72
2023/08/12 06:14:42;;;;;;;10.90;4.85;;;22.90;43.00;;;;;;4990552;28;20763;-72
2023/08/12 06:17:07;;;;;;;11.40;5.63;;;22.80;99.90;;;;;;4999928;28;20500;-71
2023/08/12 06:19:33;;;;;;;11.33;5.30;;;22.60;99.90;;;;;;5006018;28;20488;-71
2023/08/12 06:22:01;;;;;;;10.30;5.63;;;22.30;1.00;;;;;;4998075;28;20761;-71
2023/08/12 06:24:26;;;;;;;12.02;6.22;;;22.20;1.00;;;;;;4997673;28;20410;-71
2023/08/12 06:26:52;;;;;;;12.93;6.40;;;22.30;1.00;;;;;;5003949;28;20444;-71
2023/08/12 06:29:17;;;;;;;12.60;5.97;;;22.30;1.00;;;;;;4995445;28;20523;-71
2023/08/12 06:31:44;;;;;;;13.40;5.87;;;22.30;1.00;;;;;;4982685;28;20398;-72
2023/08/12 06:34:10;;;;;;;10.70;5.10;;;22.40;1.00;;;;;;4992482;28;20402;-72
2023/08/12 06:36:35;;;;;;;13.98;6.28;;;22.40;1.00;;;;;;4989986;28;20421;-74
2023/08/12 06:39:01;;;;;;;10.77;5.50;;;22.60;1.00;;;;;;4988454;28;20422;-72
2023/08/12 06:41:26;;;;;;;14.20;6.07;;;22.70;99.90;;;;;;4989962;28;20482;-72
2023/08/12 06:43:51;;;;;;;11.73;5.70;;;23.00;99.90;;;;;;4987307;28;20770;-73
2023/08/12 06:46:17;;;;;;;12.90;6.00;;;23.00;99.90;;;;;;4991202;28;20399;-73
2023/08/12 06:48:42;;;;;;;9.93;5.40;;;23.10;99.90;;;;;;4991284;28;20402;-73
2023/08/12 06:51:11;;;;;;;11.37;5.13;;;23.50;99.90;;;;;;5005648;28;20401;-73
2023/08/12 06:53:38;;;;;;;10.85;5.20;;;24.00;1.00;;;;;;5011435;28;20399;-73
2023/08/12 06:56:03;;;;;;;11.70;5.33;;;24.60;99.90;;;;;;5010842;28;20883;-74
2023/08/12 06:58:29;;;;;;;10.68;4.97;;;25.10;99.90;;;;;;5010332;28;20503;-73
2023/08/12 07:00:55;;;;;;;10.90;4.87;;;25.10;99.90;;;;;;5011040;28;20430;-73
2023/08/12 07:03:22;;;;;;;9.97;5.07;;;25.10;1.00;;;;;;5000010;28;20436;-73
2023/08/12 07:05:47;;;;;;;9.70;4.68;;;25.50;99.90;;;;;;5005311;28;20885;-73
2023/08/12 07:08:13;;;;;;;11.02;4.80;;;25.90;1.00;;;;;;4990060;28;20435;-74
2023/08/12 07:10:39;;;;;;;11.55;5.35;;;;;;;;;;5001309;28;20395;-74
2023/08/12 07:13:05;;;;;;;10.95;5.03;;;27.20;1.00;;;;;;5007598;28;20393;-74
2023/08/12 07:15:31;;;;;;;9.57;4.80;;;;;;;;;;4993060;28;20425;-74
2023/08/12 07:17:57;;;;;;;9.52;4.70;;;31.60;1.00;;;;;;4989082;28;20398;-74
2023/08/12 07:20:24;;;;;;;10.82;5.20;;;32.20;99.90;;;;;;4990787;28;20474;-74
2023/08/12 07:22:50;;;;;;;8.60;4.00;;;33.00;99.90;;;;;;4991032;28;20894;-74
2023/08/12 07:25:16;;;;;;;10.57;5.18;;;32.70;99.90;;;;;;4979312;28;20418;-75
2023/08/12 07:27:42;;;;;;;10.32;4.93;;;32.20;99.90;;;;;;4991560;28;20830;-74
2023/08/12 07:30:08;;;;;;;8.23;4.40;;;32.10;99.90;;;;;;4986990;28;20460;-74
2023/08/12 07:32:36;;;;;;;11.73;4.55;;;32.50;99.90;;;;;;4986086;28;20414;-74
2023/08/12 07:35:01;;;;;;;11.38;5.70;;;33.30;99.90;;;;;;4985557;28;20429;-74
2023/08/12 07:37:27;;;;;;;10.83;5.13;;;33.90;99.90;;;;;;4980092;28;20420;-74
2023/08/12 07:39:52;;;;;;;10.73;4.80;;;34.20;99.90;;;;;;4981901;28;20435;-75
2023/08/12 07:42:18;;;;;;;9.45;4.68;;;35.30;99.90;;;;;;4985740;28;20466;-75
2023/08/12 07:44:43;;;;;;;9.87;5.43;;;35.30;99.90;;;;;;4980832;28;20427;-74
2023/08/12 07:47:09;;;;;;;9.43;4.82;;;34.40;99.90;;;;;;4978903;28;20907;-74
2023/08/12 07:49:35;;;;;;;9.23;4.90;;;33.60;99.90;;;;;;4989398;28;20436;-75
2023/08/12 07:52:01;;;;;;;8.60;4.40;;;32.60;99.90;;;;;;4985782;28;20422;-75
2023/08/12 07:54:26;;;;;;;9.30;4.30;;;32.90;99.90;;;;;;4984353;28;20408;-74
2023/08/12 07:56:53;;;;;;;8.53;4.40;;;34.00;99.90;;;;;;4983012;28;20426;-75
2023/08/12 07:59:19;;;;;;;8.98;4.80;;;35.60;99.90;;;;;;4985545;28;20426;-75
2023/08/12 08:01:45;;;;;;;9.95;5.18;;;36.70;99.90;;;;;;4985167;28;20398;-75
2023/08/12 08:04:11;;;;;;;9.10;4.80;;;36.90;99.90;;;;;;4986861;28;20427;-75
2023/08/12 08:06:37;;;;;;;8.95;4.05;;;37.60;99.90;;;;;;4992701;28;20422;-75
2023/08/12 08:09:03;;;;;;;8.80;4.70;;;38.20;99.90;;;;;;4977149;28;20438;-75
2023/08/12 08:11:30;;;;;;;9.93;4.77;;;38.20;99.90;;;;;;4979522;28;20400;-75
2023/08/12 08:13:57;;;;;;;10.65;6.82;;;39.50;99.90;;;;;;4987770;28;20441;-76
2023/08/12 08:16:22;;;;;;;9.38;4.60;;;40.50;99.90;;;;;;4983112;28;20420;-76
2023/08/12 08:18:48;;;;;;;8.83;5.17;;;41.10;99.90;;;;;;4994063;28;20425;-75
2023/08/12 08:21:13;;;;;;;8.93;4.40;;;41.60;99.90;;;;;;4980108;28;20432;-75
2023/08/12 08:23:40;;;;;;;9.10;4.30;;;40.20;99.90;;;;;;4986664;28;20473;-75
2023/08/12 08:26:06;;;;;;;9.27;4.90;;;39.50;99.90;;;;;;4980133;28;21080;-75
2023/08/12 08:28:32;;;;;;;9.20;4.50;;;38.80;99.90;;;;;;4988479;28;20421;-75
2023/08/12 08:30:58;;;;;;;8.43;4.47;;;39.50;99.90;;;;;;4989584;28;21221;-75
2023/08/12 08:33:24;;;;;;;8.87;4.40;;;39.90;99.90;;;;;;4989459;28;20417;-75
2023/08/12 08:35:50;;;;;;;11.98;4.80;;;39.20;99.90;;;;;;4971691;28;20542;-75
2023/08/12 08:38:15;;;;;;;9.50;5.20;;;37.40;99.90;;;;;;4978774;28;20499;-75
2023/08/12 08:40:42;;;;;;;12.40;5.30;;;35.80;99.90;;;;;;4980449;28;20415;-75
2023/08/12 08:43:09;;;;;;;9.82;4.55;;;35.60;99.90;;;;;;4977607;28;20414;-75
2023/08/12 08:45:35;;;;;;;8.60;4.70;;;36.60;99.90;;;;;;4976145;28;20412;-76
2023/08/12 08:48:02;;;;;;;9.00;4.85;;;38.00;99.90;;;;;;4978958;28;20490;-76
2023/08/12 08:50:30;;;;;;;9.82;5.03;;;38.80;99.90;;;;;;4981846;28;20510;-76
2023/08/12 08:52:57;;;;;;;9.00;4.40;;;38.40;99.90;;;;;;4978027;28;20438;-75
2023/08/12 08:55:23;;;;;;;11.18;5.07;;;38.50;99.90;;;;;;4981012;28;20506;-76
2023/08/12 08:57:49;;;;;;;9.57;5.22;;;39.00;99.90;;;;;;4974771;28;20434;-76
2023/08/12 09:00:17;;;;;;;8.40;4.60;;;40.40;99.90;;;;;;4983120;28;20451;-76
2023/08/12 09:02:48;;;;;;;11.35;4.50;;;41.20;99.90;;;;;;4988589;28;20444;-76
2023/08/12 09:05:15;;;;;;;10.60;5.10;;;41.70;99.90;;;;;;5000082;28;20440;-76
2023/08/12 09:07:45;;;;;;;9.13;4.75;;;41.80;99.90;;;;;;5003238;28;20404;-76
2023/08/12 09:10:11;;;;;;;10.52;5.00;;;42.30;99.90;;;;;;4981486;28;20418;-76
2023/08/12 09:12:37;;;;;;;11.07;5.23;;;41.10;99.90;;;;;;4992362;28;20410;-76
2023/08/12 09:15:04;;;;;;;9.23;4.90;;;39.50;99.90;;;;;;4995258;28;20407;-76
2023/08/12 09:17:31;;;;;;;11.23;5.25;;;37.90;99.90;;;;;;4987626;28;20398;-77
2023/08/12 09:19:57;;;;;;;8.70;4.30;;;37.80;99.90;;;;;;4998880;28;20430;-76
2023/08/12 09:22:25;;;;;;;8.30;4.23;;;38.80;99.90;;;;;;4997016;28;20412;-75
2023/08/12 09:24:57;;;;;;;11.32;4.45;;;40.00;99.90;;;;;;5011465;28;20435;-76
2023/08/12 09:27:23;;;;;;;9.07;4.65;;;40.50;99.90;;;;;;5000001;28;20445;-77
2023/08/12 09:29:51;;;;;;;9.60;4.63;;;40.20;99.90;;;;;;4981927;28;20416;-76
2023/08/12 09:32:20;;;;;;;9.70;4.87;;;40.50;99.90;;;;;;4994905;28;20417;-76
2023/08/12 09:34:54;;;;;;;10.10;4.60;;;41.10;99.90;;;;;;5007094;28;20422;-76
2023/08/12 09:37:22;;;;;;;10.32;5.30;;;41.70;99.90;;;;;;4994425;28;20425;-76
2023/08/12 09:39:49;;;;;;;16.87;6.30;;;42.40;99.90;;;;;;4998131;28;20479;-76
2023/08/12 09:42:15;;;;;;;10.05;5.57;;;43.40;99.90;;;;;;5012577;28;20423;-75
2023/08/12 09:44:41;;;;;;;9.75;5.05;;;42.60;99.90;;;;;;5012117;28;20435;-75
2023/08/12 09:47:10;;;;;;;9.30;4.83;;;41.20;99.90;;;;;;4994378;28;20422;-75
2023/08/12 09:49:37;;;;;;;9.73;5.10;;;40.50;99.90;;;;;;4996574;28;20406;-75
2023/08/12 09:52:07;;;;;;;10.20;5.18;;;41.50;99.90;;;;;;4991016;28;20412;-76
2023/08/12 09:54:34;;;;;;;9.30;4.85;;;40.80;99.90;;;;;;4997814;28;20418;-75
2023/08/12 09:57:02;;;;;;;11.75;4.40;;;39.10;99.90;;;;;;4981198;28;20414;-75
2023/08/12 09:59:31;;;;;;;9.80;4.90;;;37.90;99.90;;;;;;4988548;28;20429;-75
2023/08/12 10:01:57;;;;;;;9.60;4.00;;;37.10;99.90;;;;;;4988203;28;20412;-75
2023/08/12 10:04:31;;;;;;;8.57;4.20;;;36.90;99.90;;;;;;4995726;28;20754;-76
2023/08/12 10:06:57;;;;;;;9.30;4.80;;;36.60;99.90;;;;;;4972054;28;20414;-75
2023/08/12 10:09:24;;;;;;;11.38;5.00;;;35.60;99.90;;;;;;4991014;28;20430;-75
2023/08/12 10:11:52;;;;;;;9.68;4.28;;;35.00;99.90;;;;;;5005833;28;20444;-74
2023/08/12 10:14:18;;;;;;;8.37;4.20;;;34.30;99.90;;;;;;4995895;28;20497;-75
2023/08/12 10:16:49;;;;;;;11.40;4.50;;;34.00;99.90;;;;;;4989224;28;20421;-75
2023/08/12 10:19:16;;;;;;;10.82;4.68;;;34.10;99.90;;;;;;5005014;28;20448;-75
2023/08/12 10:21:43;;;;;;;9.30;4.47;;;34.70;99.90;;;;;;4994841;28;20421;-75
2023/08/12 10:24:16;;;;;;;9.68;4.72;;;35.50;99.90;;;;;;4982047;28;20448;-75
2023/08/12 10:26:45;;;;;;;8.40;4.00;;;35.90;99.90;;;;;;4995792;28;20510;-75
2023/08/12 10:29:11;;;;;;;8.90;4.47;;;35.90;99.90;;;;;;4992237;28;20414;-75
2023/08/12 10:31:39;;;;;;;8.98;4.22;;;35.80;99.90;;;;;;5001089;28;20417;-75
2023/08/12 10:34:05;;;;;;;8.70;4.47;;;35.50;99.90;;;;;;4993557;28;20591;-75
2023/08/12 10:36:31;;;;;;;8.90;4.22;;;35.20;99.90;;;;;;4993366;28;20485;-74
2023/08/12 10:39:00;;;;;;;9.10;4.50;;;34.80;99.90;;;;;;5002977;28;20463;-74
2023/08/12 10:41:27;;;;;;;8.57;4.50;;;35.00;99.90;;;;;;5012324;28;20412;-75
2023/08/12 10:43:58;;;;;;;8.77;4.22;;;35.80;99.90;;;;;;5001930;28;20465;-75
2023/08/12 10:46:28;;;;;;;8.30;4.13;;;36.60;99.90;;;;;;4992704;28;20783;-75
2023/08/12 10:49:13;;;;;;;7.85;3.60;;;36.90;99.90;;;;;;4991318;28;20402;-74
2023/08/12 10:51:44;;;;;;;8.75;4.57;;;36.60;99.90;;;;;;5006823;28;20499;-74
2023/08/12 10:54:17;;;;;;;10.50;5.50;;;36.60;99.90;;;;;;5003284;28;20449;-75
2023/08/12 10:57:04;;;;;;;11.55;5.15;;;36.70;99.90;;;;;;4992585;28;20812;-75
2023/08/12 10:59:52;;;;;;;8.65;4.28;;;36.30;99.90;;;;;;4997649;28;20420;-74
2023/08/12 11:02:36;;;;;;;9.77;4.35;;;36.30;99.90;;;;;;5011159;28;20402;-75
2023/08/12 11:05:10;;;;;;;9.27;4.22;;;35.80;99.90;;;;;;5002637;28;20445;-75
2023/08/12 11:07:44;;;;;;;8.68;3.13;;;35.80;99.90;;;;;;4992108;28;20410;-74
2023/08/12 11:10:14;;;;;;;8.07;3.30;;;35.70;99.90;;;;;;5007170;28;20401;-75
2023/08/12 11:12:49;;;;;;;8.40;4.00;;;34.80;99.90;;;;;;5012766;28;20488;-73
2023/08/12 11:15:14;;;;;;;8.60;4.30;;;34.80;99.90;;;;;;4994061;28;20394;-72
2023/08/12 11:17:46;;;;;;;8.10;3.90;;;35.30;99.90;;;;;;4992899;28;20868;-72
2023/08/12 11:20:13;;;;;;;8.50;3.20;;;35.40;99.90;;;;;;4992162;28;20422;-72
2023/08/12 11:22:43;;;;;;;7.22;2.70;;;35.40;99.90;;;;;;4991465;28;20417;-73
2023/08/12 11:25:14;;;;;;;7.57;2.60;;;34.30;99.90;;;;;;4996965;28;21021;-72
2023/08/12 11:27:43;;;;;;;7.70;3.50;;;33.20;99.90;;;;;;4991512;28;20409;-72
2023/08/12 11:30:11;;;;;;;7.60;3.10;;;33.30;99.90;;;;;;4991366;28;20421;-72
2023/08/12 11:32:38;;;;;;;8.20;3.30;;;33.90;99.90;;;;;;4992020;28;20394;-72
2023/08/12 11:35:07;;;;;;;7.15;3.22;;;34.40;99.90;;;;;;4991909;28;20394;-73
2023/08/12 11:37:35;;;;;;;8.23;2.75;;;34.70;99.90;;;;;;4991071;28;20390;-73
2023/08/12 11:40:02;;;;;;;7.80;2.50;;;34.80;99.90;;;;;;4996451;28;20982;-73
2023/08/12 11:42:28;;;;;;;7.80;2.80;;;34.80;99.90;;;;;;4989207;28;20422;-73
2023/08/12 11:44:54;;;;;;;7.40;2.50;;;34.50;99.90;;;;;;4990995;28;20406;-73
2023/08/12 11:47:19;;;;;;;8.52;4.07;;;33.90;99.90;;;;;;4990567;28;20998;-72
2023/08/12 11:49:45;;;;;;;8.48;3.50;;;32.70;99.90;;;;;;4989923;28;20426;-73
2023/08/12 11:52:11;;;;;;;8.20;1.97;;;31.20;99.90;;;;;;4989876;28;20397;-73
2023/08/12 11:54:37;;;;;;;5.00;0.80;;;27.60;99.90;;;;;;4989144;28;20398;-73
2023/08/12 11:57:03;;;;;;;4.30;0.30;;;25.60;1.00;;;;;;4989269;28;20910;-72
2023/08/12 11:59:30;;;;;;;4.20;0.40;;;24.10;1.00;;;;;;4985045;28;20440;-72
2023/08/12 12:02:01;;;;;;;4.10;0.40;;;23.30;3.90;;;;;;4984506;28;20428;-72
2023/08/12 12:04:26;;;;;;;4.00;0.30;;;22.20;99.90;;;;;;4985827;28;20447;-72
2023/08/12 12:06:52;;;;;;;4.00;0.50;;;22.20;99.90;;;;;;4991263;28;20506;-71
2023/08/12 12:09:18;;;;;;;4.10;0.83;;;22.20;99.90;;;;;;4993930;28;20416;-71
2023/08/12 12:11:44;;;;;;;3.90;0.50;;;22.20;99.90;;;;;;4988624;28;20428;-71
2023/08/12 12:14:11;;;;;;;3.80;0.40;;;22.30;99.90;;;;;;4989899;28;20414;-72
2023/08/12 12:16:46;;;;;;;4.00;0.60;;;22.30;99.90;;;;;;4989434;28;20418;-72
2023/08/12 12:19:23;;;;;;;3.80;0.40;;;22.20;99.90;;;;;;4988365;28;20532;-72
2023/08/12 12:21:50;;;;;;;3.70;0.30;;;22.30;99.90;;;;;;4988455;28;20406;-72
2023/08/12 12:24:16;;;;;;;3.70;0.30;;;22.30;99.90;;;;;;4989826;28;20402;-73
2023/08/12 12:26:42;;;;;;;3.80;0.40;;;22.20;99.90;;;;;;4989491;28;20455;-73
2023/08/12 12:29:07;;;;;;;3.80;0.40;;;22.20;99.90;;;;;;4997362;28;20416;-72
2023/08/12 12:31:35;;;;;;;3.80;0.40;;;22.20;99.90;;;;;;4996916;28;20426;-71
2023/08/12 12:34:05;;;;;;;3.70;0.30;;;22.10;99.90;;;;;;5002776;28;20887;-72
2023/08/12 12:36:31;;;;;;;3.80;0.50;;;22.10;99.90;;;;;;4992789;28;20469;-72
2023/08/12 12:38:57;;;;;;;3.70;0.45;;;21.90;99.90;;;;;;5003570;28;20424;-72
2023/08/12 12:41:23;;;;;;;3.60;0.30;;;21.80;99.90;;;;;;5005852;28;20393;-72